Huntington, WV

8:23 AM EST on February 20, 2018 (GMT -0500)
Tri-State / Ferguson | | Change Station
Active Advisory: Flood Warning

Elev 827 ft 38.37 °N, 82.56 °W | Updated 32 minutes ago

Clear
Clear
63 °F
Feels Like 63 °F
N
7
Wind Variable Wind from South

Today
High -- | Low -- °F
--% Chance of Precip.
Yesterday
High -- | Low -- °F
Precip. -- in
Pressure 30.23 in
Visibility 10.0 miles
Clouds Clear
Dew Point 50 °F
Humidity 63%
Rainfall 0.00 in
Snow Depth Not available.
7:14 AM 6:13 PM
Waxing Crescent, 21% visible
METAR KHTS 201251Z 19006KT 10SM CLR 17/10 A3024 RMK AO2 SLP236 T01720100
Pressure 30.23 in
Visibility 10.0 miles
Clouds Clear
Dew Point 50 °F
Humidity 63%
Rainfall 0.00 in
Snow Depth Not available.
7:14 AM 6:13 PM
Waxing Crescent, 21% visible
METAR KHTS 201251Z 19006KT 10SM CLR 17/10 A3024 RMK AO2 SLP236 T01720100

Get Your Daily Forecast Email!

Thanks for signing up!

Be on the lookout for a verification email in your inbox.

You'll start receiving severe weather alerts in your inbox..

×

10-Day Weather Forecast

Almanac

Astronomy

Feb. 20, 2018 Rise Set
Actual Time
Civil Twilight
Nautical Twilight
Astronomical Twilight
Moon
Length of Visible Light
Length of Day
Tomorrow will be .
, % of the Moon is Illuminated

Today's Extremes

State Highs State Lows

Community

WunderPhotos

Category 6

Welcome to Category 6. This is the collective home for Weather Underground's featured writeups by Dr. Jeff Masters (right), Bob Henson (left), Chris Burt, and other regular contributors.

Nearby

Air Quality

  Air Quality AQ Index Pollutant
Not available.

Snow Depth

Station Depth Elevation

Earthquake Activity

City Distance Mag. Time & Date
Minimum magnitude displayed is 2.5.

Coastal Water Temperatures

Place Temperature

Stations

Nearby Weather Stations

Station Location Temp. Windchill Dew Point Humidity Wind Precip. Elev Updated Type
                   

Watches & Warnings

Flood Warning
Issued: 6:23 AM EST Feb. 20, 2018 – National Weather Service

The Flood Warning continues for
the Ohio River at Huntington.
* At 6:00 am Tuesday the stage was 52.0 feet.
* Minor flooding is occurring and minor flooding is forecast.
* Flood stage is 50.0 feet.
* Forecast... the river will continue rising to near 52.2 feet by this morning.
The river will fall below flood stage tonight.
* At stages near 52.0 feet... Route 60 east above the Roby Road bridge and
Riverside Drive is flooded.



Lat... Lon 3848 8235 3846 8221 3834 8254 3843 8265